Time;durP1;ratioP1;P1;durP2;ratioP2;P2;SDS_P1;SDS_P2;PMS_P1;PMS_P2;Temp;Humidity;BMP_temperature;BMP_pressure;BME280_temperature;BME280_humidity;BME280_pressure;Samples;Min_cycle;Max_cycle;Signal;HPM_P1;HPM_P2
2022/03/28 00:02:07;;;;;;;1.50;1.50;;;10.60;99.90;;;;;;5033087;28;20806;-65
2022/03/28 00:04:36;;;;;;;1.80;1.70;;;10.50;99.90;;;;;;5031452;28;20251;-65
2022/03/28 00:07:03;;;;;;;1.63;1.52;;;10.40;99.90;;;;;;5008028;28;20715;-65
2022/03/28 00:09:30;;;;;;;1.73;1.63;;;10.40;99.90;;;;;;5031642;28;20203;-65
2022/03/28 00:11:57;;;;;;;1.80;1.70;;;10.30;99.90;;;;;;5030390;28;20216;-65
2022/03/28 00:14:23;;;;;;;1.90;1.80;;;10.30;99.90;;;;;;5031280;28;20627;-65
2022/03/28 00:16:50;;;;;;;1.60;1.50;;;10.30;99.90;;;;;;5019655;28;20707;-64
2022/03/28 00:19:17;;;;;;;1.60;1.50;;;10.20;99.90;;;;;;5020874;28;20252;-66
2022/03/28 00:21:45;;;;;;;1.70;1.60;;;10.20;99.90;;;;;;5027476;28;20840;-65
2022/03/28 00:24:12;;;;;;;2.05;1.85;;;10.10;99.90;;;;;;5012636;28;20232;-65
2022/03/28 00:26:39;;;;;;;1.63;1.52;;;10.10;99.90;;;;;;5016570;28;20225;-66
2022/03/28 00:29:07;;;;;;;2.17;1.80;;;10.10;99.90;;;;;;5013201;28;20263;-66
2022/03/28 00:31:33;;;;;;;1.88;1.77;;;10.00;99.90;;;;;;5027223;28;20295;-66
2022/03/28 00:34:01;;;;;;;1.70;1.60;;;10.00;99.90;;;;;;5041600;28;20224;-66
2022/03/28 00:36:27;;;;;;;1.67;1.58;;;10.00;99.90;;;;;;5043739;28;20220;-64
2022/03/28 00:38:56;;;;;;;2.33;1.80;;;9.90;99.90;;;;;;5030840;28;20296;-66
2022/03/28 00:41:23;;;;;;;1.80;1.70;;;9.90;99.90;;;;;;5029235;28;20279;-64
2022/03/28 00:43:55;;;;;;;1.70;1.60;;;9.90;99.90;;;;;;5028803;28;20240;-66
2022/03/28 00:46:22;;;;;;;1.70;1.60;;;9.80;99.90;;;;;;5030974;28;20712;-66
2022/03/28 00:48:49;;;;;;;1.80;1.70;;;9.80;99.90;;;;;;5031346;28;20208;-67
2022/03/28 00:51:17;;;;;;;1.90;1.80;;;9.80;99.90;;;;;;5031475;28;20288;-65
2022/03/28 00:53:45;;;;;;;1.50;1.40;;;9.70;99.90;;;;;;5031131;28;20211;-66
2022/03/28 00:56:14;;;;;;;1.70;1.60;;;9.70;99.90;;;;;;5030651;28;20228;-66
2022/03/28 00:58:42;;;;;;;1.85;1.75;;;9.60;99.90;;;;;;5030844;28;20287;-67
2022/03/28 01:01:10;;;;;;;2.08;1.77;;;9.60;99.90;;;;;;5024157;28;20217;-65
2022/03/28 01:03:37;;;;;;;1.63;1.58;;;9.50;99.90;;;;;;5034704;28;20209;-66
2022/03/28 01:06:04;;;;;;;1.52;1.45;;;9.60;99.90;;;;;;5035154;28;20331;-65
2022/03/28 01:08:33;;;;;;;1.73;1.60;;;9.30;99.90;;;;;;5042981;23;20225;-64
2022/03/28 01:11:02;;;;;;;2.00;1.90;;;9.30;99.90;;;;;;5014176;28;20201;-63
2022/03/28 01:13:33;;;;;;;1.88;1.77;;;9.20;99.90;;;;;;5035139;28;20228;-63
2022/03/28 01:16:00;;;;;;;1.88;1.77;;;9.20;99.90;;;;;;5012681;28;20233;-63
2022/03/28 01:18:26;;;;;;;1.65;1.55;;;9.10;99.90;;;;;;5031755;28;20236;-65
2022/03/28 01:20:57;;;;;;;1.67;1.58;;;9.10;99.90;;;;;;5036093;28;20567;-64
2022/03/28 01:23:24;;;;;;;1.83;1.73;;;9.10;99.90;;;;;;5033707;28;20239;-63
2022/03/28 01:25:52;;;;;;;1.95;1.85;;;9.00;99.90;;;;;;5035827;28;20236;-62
2022/03/28 01:28:20;;;;;;;1.90;1.80;;;9.00;99.90;;;;;;5036014;28;20302;-64
2022/03/28 01:30:47;;;;;;;2.30;1.58;;;9.00;99.90;;;;;;5035549;28;20284;-64
2022/03/28 01:33:14;;;;;;;2.00;1.80;;;8.90;99.90;;;;;;5034864;28;20224;-64
2022/03/28 01:35:43;;;;;;;1.70;1.60;;;8.90;99.90;;;;;;5035168;28;20294;-64
2022/03/28 01:38:13;;;;;;;1.80;1.70;;;8.90;99.90;;;;;;5037922;28;20244;-63
2022/03/28 01:40:42;;;;;;;1.80;1.70;;;8.90;99.90;;;;;;5037719;28;20312;-64
2022/03/28 01:43:09;;;;;;;1.80;1.70;;;8.80;99.90;;;;;;5034946;28;20215;-63
2022/03/28 01:45:36;;;;;;;1.90;1.80;;;8.80;99.90;;;;;;5033251;28;20736;-63
2022/03/28 01:48:04;;;;;;;1.77;1.67;;;8.90;99.90;;;;;;5034552;28;20312;-64
2022/03/28 01:50:31;;;;;;;1.42;1.42;;;8.90;99.90;;;;;;5033494;28;20211;-65
2022/03/28 01:52:58;;;;;;;1.80;1.70;;;8.90;99.90;;;;;;5033254;28;20235;-64
2022/03/28 01:55:26;;;;;;;1.80;1.70;;;8.90;99.90;;;;;;5032808;28;20236;-64
2022/03/28 01:57:53;;;;;;;1.77;1.60;;;8.90;99.90;;;;;;5031877;28;20307;-62
2022/03/28 02:00:22;;;;;;;1.75;1.65;;;8.80;99.90;;;;;;5030581;28;20228;-63
2022/03/28 02:02:49;;;;;;;1.60;1.50;;;8.80;99.90;;;;;;5032808;28;20579;-64
2022/03/28 02:05:16;;;;;;;1.55;1.52;;;8.80;99.90;;;;;;5033733;28;20254;-65
2022/03/28 02:07:44;;;;;;;1.60;1.50;;;8.80;99.90;;;;;;4994898;28;1112527;-64
2022/03/28 02:10:14;;;;;;;1.77;1.67;;;8.80;99.90;;;;;;5033170;28;20241;-63
2022/03/28 02:12:43;;;;;;;2.00;1.90;;;8.80;99.90;;;;;;5017079;28;20312;-63
2022/03/28 02:15:11;;;;;;;1.80;1.58;;;8.80;99.90;;;;;;5031266;28;20208;-64
2022/03/28 02:17:38;;;;;;;1.60;1.53;;;8.80;99.90;;;;;;5034481;28;20298;-64
2022/03/28 02:20:08;;;;;;;1.80;1.70;;;8.80;99.90;;;;;;5034284;28;20225;-63
2022/03/28 02:22:35;;;;;;;1.70;1.60;;;8.80;99.90;;;;;;5036914;28;20207;-65
2022/03/28 02:25:02;;;;;;;1.95;1.85;;;8.80;99.90;;;;;;5036598;28;20372;-62
2022/03/28 02:27:29;;;;;;;1.80;1.70;;;8.80;99.90;;;;;;5037478;28;20657;-64
2022/03/28 02:29:58;;;;;;;1.70;1.60;;;8.80;99.90;;;;;;5038878;28;20232;-64
2022/03/28 02:32:25;;;;;;;1.90;1.80;;;8.80;99.90;;;;;;5043450;28;20232;-63
2022/03/28 02:34:51;;;;;;;1.88;1.77;;;8.80;99.90;;;;;;5033636;28;20247;-63
2022/03/28 02:37:18;;;;;;;1.90;1.80;;;8.80;99.90;;;;;;5033608;28;20237;-62
2022/03/28 02:39:45;;;;;;;1.77;1.52;;;8.70;99.90;;;;;;5034244;28;20244;-63
2022/03/28 02:42:12;;;;;;;1.73;1.63;;;8.60;99.90;;;;;;5027149;28;20211;-62
2022/03/28 02:44:39;;;;;;;1.80;1.70;;;8.60;99.90;;;;;;4993303;28;20202;-64
2022/03/28 02:47:08;;;;;;;1.80;1.70;;;8.70;99.90;;;;;;4994597;28;20941;-62
2022/03/28 02:49:35;;;;;;;1.88;1.77;;;8.60;99.90;;;;;;4994226;28;20260;-65
2022/03/28 02:52:02;;;;;;;1.80;1.70;;;8.70;99.90;;;;;;4994388;28;20206;-64
2022/03/28 02:54:29;;;;;;;1.83;1.73;;;8.60;99.90;;;;;;4993711;28;20289;-64
2022/03/28 02:56:56;;;;;;;1.80;1.70;;;8.60;99.90;;;;;;5000417;28;20305;-63
2022/03/28 02:59:23;;;;;;;1.80;1.70;;;8.60;99.90;;;;;;5033035;28;20305;-63
2022/03/28 03:01:50;;;;;;;2.72;1.85;;;8.60;99.90;;;;;;5028177;28;20712;-62
2022/03/28 03:04:19;;;;;;;1.98;1.88;;;8.60;99.90;;;;;;5032349;28;20220;-63
2022/03/28 03:06:46;;;;;;;1.70;1.60;;;8.60;99.90;;;;;;5023879;28;20292;-64
2022/03/28 03:09:12;;;;;;;1.75;1.65;;;8.60;99.90;;;;;;5012755;28;20252;-64
2022/03/28 03:11:40;;;;;;;1.95;1.85;;;8.70;99.90;;;;;;5013256;28;20292;-62
2022/03/28 03:14:07;;;;;;;1.70;1.60;;;8.70;99.90;;;;;;5016173;28;20205;-62
2022/03/28 03:16:34;;;;;;;1.98;1.88;;;8.70;99.90;;;;;;5033494;28;20563;-65
2022/03/28 03:19:01;;;;;;;2.03;1.93;;;8.70;99.90;;;;;;5032090;28;20315;-63
2022/03/28 03:21:29;;;;;;;1.45;1.45;;;8.60;99.90;;;;;;5032043;28;20328;-63
2022/03/28 03:23:56;;;;;;;1.90;1.80;;;8.60;99.90;;;;;;5031879;28;20650;-64
2022/03/28 03:26:23;;;;;;;2.00;1.90;;;8.50;99.90;;;;;;5032242;28;20295;-63
2022/03/28 03:28:50;;;;;;;2.10;2.00;;;8.50;99.90;;;;;;5032404;28;20315;-64
2022/03/28 03:31:17;;;;;;;1.90;1.80;;;8.40;99.90;;;;;;5032563;28;20239;-63
2022/03/28 03:33:44;;;;;;;2.20;2.10;;;8.40;99.90;;;;;;5014635;28;20236;-64
2022/03/28 03:36:11;;;;;;;2.00;1.90;;;8.40;99.90;;;;;;5013035;28;20741;-63
2022/03/28 03:38:39;;;;;;;1.90;1.80;;;8.40;99.90;;;;;;5017494;28;20224;-63
2022/03/28 03:41:07;;;;;;;1.98;1.88;;;8.40;99.90;;;;;;5038424;28;20341;-63
2022/03/28 03:43:34;;;;;;;1.90;1.80;;;8.30;99.90;;;;;;5036141;28;20602;-64
2022/03/28 03:46:01;;;;;;;2.00;1.90;;;8.30;99.90;;;;;;5036299;28;20268;-64
2022/03/28 03:48:29;;;;;;;1.83;1.73;;;8.30;99.90;;;;;;5039397;28;20275;-65
2022/03/28 03:50:57;;;;;;;2.20;2.00;;;8.20;99.90;;;;;;5039150;28;20235;-66
2022/03/28 03:53:23;;;;;;;1.90;1.80;;;8.20;99.90;;;;;;5038595;28;20678;-64
2022/03/28 03:55:52;;;;;;;1.92;1.83;;;8.20;99.90;;;;;;5035346;28;20209;-64
2022/03/28 03:58:18;;;;;;;1.90;1.80;;;8.10;99.90;;;;;;5023519;28;20311;-64
2022/03/28 04:00:45;;;;;;;1.90;1.80;;;8.10;99.90;;;;;;5031915;28;20224;-64
2022/03/28 04:03:12;;;;;;;1.80;1.70;;;8.10;99.90;;;;;;5019675;28;20267;-64
2022/03/28 04:05:39;;;;;;;1.90;1.80;;;8.10;99.90;;;;;;5022833;28;20204;-64
2022/03/28 04:08:06;;;;;;;1.90;1.80;;;8.10;99.90;;;;;;5031804;28;20236;-65
2022/03/28 04:10:34;;;;;;;2.03;1.92;;;8.20;99.90;;;;;;5032159;28;20512;-64
2022/03/28 04:13:03;;;;;;;2.10;2.00;;;8.20;99.90;;;;;;5031406;28;20236;-64
2022/03/28 04:15:30;;;;;;;2.00;1.90;;;8.20;99.90;;;;;;5031305;28;20201;-63
2022/03/28 04:17:57;;;;;;;2.00;1.90;;;8.20;99.90;;;;;;5024471;28;20483;-63
2022/03/28 04:20:25;;;;;;;1.77;1.67;;;8.20;99.90;;;;;;5011974;28;20209;-65
2022/03/28 04:22:52;;;;;;;2.00;1.90;;;8.20;99.90;;;;;;5011665;28;20586;-68
2022/03/28 04:25:19;;;;;;;1.70;1.60;;;8.20;99.90;;;;;;5012558;28;20296;-64
2022/03/28 04:27:46;;;;;;;2.40;2.20;;;8.20;99.90;;;;;;5029629;28;20217;-63
2022/03/28 04:30:15;;;;;;;2.00;1.90;;;8.20;99.90;;;;;;5039326;28;20293;-64
2022/03/28 04:32:42;;;;;;;1.95;1.60;;;8.20;99.90;;;;;;5041179;28;20239;-63
2022/03/28 04:35:10;;;;;;;2.20;2.10;;;8.30;99.90;;;;;;5042443;28;20268;-64
2022/03/28 04:37:41;;;;;;;2.00;1.90;;;8.20;99.90;;;;;;5039818;28;20212;-64
2022/03/28 04:40:10;;;;;;;2.03;1.92;;;8.20;99.90;;;;;;5032512;28;20615;-64
2022/03/28 04:42:37;;;;;;;1.93;1.80;;;8.10;99.90;;;;;;5035483;28;20247;-64
2022/03/28 04:45:06;;;;;;;2.30;2.08;;;8.10;99.90;;;;;;5032008;28;20674;-64
2022/03/28 04:47:35;;;;;;;2.20;2.10;;;8.10;99.90;;;;;;5030470;28;20279;-64
2022/03/28 04:50:02;;;;;;;1.90;1.80;;;8.00;99.90;;;;;;5012301;28;20288;-64
2022/03/28 04:52:30;;;;;;;1.98;1.83;;;8.00;99.90;;;;;;5011242;28;20288;-67
2022/03/28 04:54:57;;;;;;;1.92;1.83;;;8.20;99.90;;;;;;5010553;28;20215;-66
2022/03/28 04:57:24;;;;;;;2.22;2.13;;;8.30;99.90;;;;;;5005470;28;20229;-64
2022/03/28 04:59:50;;;;;;;2.10;2.00;;;8.20;99.90;;;;;;5010634;28;20351;-65
2022/03/28 05:02:17;;;;;;;2.25;1.90;;;8.20;99.90;;;;;;5010183;28;20260;-65
2022/03/28 05:04:46;;;;;;;2.00;1.90;;;8.20;99.90;;;;;;5011711;28;20236;-64
2022/03/28 05:07:13;;;;;;;2.10;2.00;;;8.10;99.90;;;;;;5010182;28;20239;-64
2022/03/28 05:09:40;;;;;;;2.17;2.00;;;8.00;99.90;;;;;;5015348;28;20312;-64
2022/03/28 05:12:08;;;;;;;2.10;2.00;;;8.00;99.90;;;;;;5015054;28;20223;-65
2022/03/28 05:14:35;;;;;;;2.03;1.92;;;8.00;99.90;;;;;;5013915;28;20239;-66
2022/03/28 05:17:02;;;;;;;2.00;1.90;;;8.00;99.90;;;;;;5011170;28;20209;-64
2022/03/28 05:19:29;;;;;;;2.22;2.10;;;8.00;99.90;;;;;;5023481;28;20251;-66
2022/03/28 05:21:58;;;;;;;2.25;2.15;;;8.10;99.90;;;;;;5015980;28;20300;-65
2022/03/28 05:24:25;;;;;;;2.15;2.05;;;8.10;99.90;;;;;;5006125;28;20208;-65
2022/03/28 05:26:52;;;;;;;2.40;2.30;;;8.10;99.90;;;;;;5008663;28;20206;-66
2022/03/28 05:29:23;;;;;;;2.00;1.90;;;8.10;99.90;;;;;;5012232;28;20217;-66
2022/03/28 05:31:50;;;;;;;2.50;2.40;;;8.10;99.90;;;;;;5017300;28;20198;-65
2022/03/28 05:34:17;;;;;;;2.40;2.30;;;8.10;99.90;;;;;;5013426;28;20198;-66
2022/03/28 05:36:45;;;;;;;2.50;2.40;;;8.00;99.90;;;;;;5014722;28;20283;-64
2022/03/28 05:39:14;;;;;;;2.00;1.90;;;8.00;99.90;;;;;;5006490;28;20587;-65
2022/03/28 05:41:41;;;;;;;2.30;2.10;;;8.00;99.90;;;;;;5011721;28;20217;-67
2022/03/28 05:44:08;;;;;;;2.38;2.20;;;8.10;99.90;;;;;;5010058;28;20247;-65
2022/03/28 05:46:35;;;;;;;2.63;2.42;;;8.00;99.90;;;;;;5013213;28;20197;-66
2022/03/28 05:49:02;;;;;;;2.10;2.00;;;8.00;99.90;;;;;;5015764;28;20217;-65
2022/03/28 05:51:29;;;;;;;2.13;2.03;;;8.10;99.90;;;;;;5021228;28;20243;-65
2022/03/28 05:53:56;;;;;;;2.20;2.10;;;8.10;99.90;;;;;;5013958;28;20210;-65
2022/03/28 05:56:25;;;;;;;2.13;2.03;;;8.10;99.90;;;;;;5017848;28;20236;-66
2022/03/28 05:58:52;;;;;;;2.55;2.40;;;8.10;99.90;;;;;;5017087;28;20248;-66
2022/03/28 06:01:19;;;;;;;2.42;2.33;;;8.00;99.90;;;;;;5016953;28;20240;-63
2022/03/28 06:03:45;;;;;;;2.20;2.10;;;8.00;99.90;;;;;;5015524;28;20201;-64
2022/03/28 06:06:13;;;;;;;2.53;2.33;;;8.10;99.90;;;;;;5016595;28;20293;-67
2022/03/28 06:08:40;;;;;;;2.30;2.20;;;8.10;99.90;;;;;;5015731;28;20228;-65
2022/03/28 06:11:06;;;;;;;2.40;2.30;;;8.10;99.90;;;;;;5009342;28;20204;-66
2022/03/28 06:13:35;;;;;;;2.20;2.10;;;8.10;99.90;;;;;;5011501;28;20293;-65
2022/03/28 06:16:05;;;;;;;2.50;2.40;;;8.00;99.90;;;;;;5014760;28;20269;-64
2022/03/28 06:18:32;;;;;;;2.20;2.00;;;8.00;99.90;;;;;;5015043;28;20730;-66
2022/03/28 06:20:59;;;;;;;2.80;2.60;;;8.10;99.90;;;;;;5018749;28;20212;-65
2022/03/28 06:23:25;;;;;;;2.60;2.40;;;8.00;99.90;;;;;;5015316;28;20624;-65
2022/03/28 06:25:52;;;;;;;2.40;2.20;;;8.00;99.90;;;;;;5015123;28;20338;-65
2022/03/28 06:28:19;;;;;;;2.75;2.38;;;8.00;99.90;;;;;;5014452;28;20304;-65
2022/03/28 06:30:47;;;;;;;2.20;2.10;;;8.10;99.90;;;;;;5017788;28;20228;-64
2022/03/28 06:33:14;;;;;;;2.20;2.10;;;8.20;99.90;;;;;;5013723;28;20202;-65
2022/03/28 06:35:42;;;;;;;2.60;2.45;;;8.30;99.90;;;;;;5014451;28;20194;-65
2022/03/28 06:38:09;;;;;;;2.10;2.00;;;8.30;99.90;;;;;;5014739;28;20236;-64
2022/03/28 06:40:36;;;;;;;2.80;2.60;;;8.40;99.90;;;;;;5014502;28;20292;-64
2022/03/28 06:43:03;;;;;;;2.10;2.00;;;8.40;99.90;;;;;;5014158;28;20260;-65
2022/03/28 06:45:30;;;;;;;2.53;2.03;;;8.60;99.90;;;;;;5014137;28;20300;-64
2022/03/28 06:47:58;;;;;;;2.42;2.33;;;8.70;99.90;;;;;;5014323;28;20268;-66
2022/03/28 06:50:27;;;;;;;2.40;2.30;;;8.80;99.90;;;;;;5014617;28;20247;-65
2022/03/28 06:52:56;;;;;;;2.55;2.35;;;8.90;99.90;;;;;;5013440;28;20672;-65
2022/03/28 06:55:23;;;;;;;3.15;2.30;;;9.10;99.90;;;;;;5014014;28;20219;-65
2022/03/28 06:57:51;;;;;;;2.35;2.13;;;9.20;99.90;;;;;;5023077;28;20725;-65
2022/03/28 07:00:18;;;;;;;2.35;2.25;;;9.40;99.90;;;;;;5023612;28;20273;-66
2022/03/28 07:02:46;;;;;;;2.70;2.42;;;9.50;99.90;;;;;;5015180;28;20256;-65
2022/03/28 07:05:14;;;;;;;2.53;2.42;;;9.70;99.90;;;;;;5024692;28;20231;-64
2022/03/28 07:07:42;;;;;;;2.13;2.03;;;9.80;99.90;;;;;;5047902;23;20328;-68
2022/03/28 07:10:11;;;;;;;2.70;2.50;;;10.00;99.90;;;;;;4985360;28;20214;-69
2022/03/28 07:12:38;;;;;;;2.20;2.10;;;10.20;99.90;;;;;;4974787;28;20261;-67
2022/03/28 07:15:06;;;;;;;2.60;2.40;;;10.20;99.90;;;;;;4974894;28;20293;-67
2022/03/28 07:17:45;;;;;;;2.00;1.90;;;10.30;99.90;;;;;;4975635;28;20294;-68
2022/03/28 07:20:14;;;;;;;2.42;2.10;;;10.50;99.90;;;;;;4990912;28;20221;-67
2022/03/28 07:22:41;;;;;;;2.30;2.20;;;10.60;99.90;;;;;;4994242;28;20268;-69
2022/03/28 07:25:09;;;;;;;1.98;1.88;;;10.90;99.90;;;;;;4994510;28;20293;-68
2022/03/28 07:27:38;;;;;;;2.30;2.20;;;10.90;99.90;;;;;;4994305;28;20214;-68
2022/03/28 07:30:06;;;;;;;2.03;1.92;;;11.00;99.90;;;;;;4994104;28;20206;-67
2022/03/28 07:32:33;;;;;;;3.83;3.43;;;11.20;99.90;;;;;;4999697;28;20216;-68
2022/03/28 07:34:59;;;;;;;2.38;2.17;;;11.30;99.90;;;;;;5012901;28;20229;-67
2022/03/28 07:37:28;;;;;;;2.20;2.10;;;11.40;99.90;;;;;;4994575;28;20237;-67
2022/03/28 07:39:56;;;;;;;2.00;1.90;;;11.50;99.90;;;;;;4993808;28;20216;-68
2022/03/28 07:42:23;;;;;;;2.30;2.10;;;11.70;99.90;;;;;;4993989;28;20222;-69
2022/03/28 07:44:55;;;;;;;2.13;2.03;;;11.80;99.90;;;;;;4993851;28;20302;-68
2022/03/28 07:47:23;;;;;;;2.20;2.10;;;12.00;99.90;;;;;;4994610;28;20648;-67
2022/03/28 07:49:50;;;;;;;2.00;1.90;;;12.10;99.90;;;;;;4997597;28;20580;-68
2022/03/28 07:52:17;;;;;;;2.10;2.00;;;12.30;99.90;;;;;;4995404;28;20656;-68
2022/03/28 07:54:46;;;;;;;2.20;2.00;;;12.40;99.90;;;;;;4994142;28;20239;-67
2022/03/28 07:57:14;;;;;;;2.55;2.00;;;12.50;99.90;;;;;;4993419;28;20724;-68
2022/03/28 07:59:41;;;;;;;1.95;1.85;;;12.70;99.90;;;;;;4993432;28;20288;-67
2022/03/28 08:02:08;;;;;;;1.90;1.80;;;12.90;99.90;;;;;;4974403;28;20288;-67
2022/03/28 08:04:36;;;;;;;2.10;1.90;;;13.10;99.90;;;;;;4973915;28;20289;-68
2022/03/28 08:07:05;;;;;;;2.10;2.00;;;13.20;99.90;;;;;;4976038;28;20333;-67
2022/03/28 08:09:33;;;;;;;2.30;2.20;;;13.50;99.90;;;;;;4993277;28;20641;-67
2022/03/28 08:12:02;;;;;;;2.43;2.33;;;13.60;99.90;;;;;;4993160;28;20203;-66
2022/03/28 08:14:30;;;;;;;2.33;2.22;;;13.80;99.90;;;;;;4994234;28;20210;-67
2022/03/28 08:16:57;;;;;;;2.80;2.60;;;14.10;99.90;;;;;;4995722;28;20655;-67
2022/03/28 08:19:24;;;;;;;2.63;2.42;;;14.20;99.90;;;;;;4995434;28;20221;-68
2022/03/28 08:21:51;;;;;;;2.40;2.20;;;14.40;99.90;;;;;;4993846;28;20704;-67
2022/03/28 08:24:18;;;;;;;2.50;2.40;;;14.50;99.90;;;;;;4991845;28;20775;-68
2022/03/28 08:26:46;;;;;;;2.40;2.30;;;14.60;99.90;;;;;;4992827;28;20637;-68
2022/03/28 08:29:14;;;;;;;2.25;2.15;;;14.80;99.90;;;;;;4993376;28;20626;-68
2022/03/28 08:31:41;;;;;;;2.90;2.70;;;15.00;99.90;;;;;;4993364;28;20206;-67
2022/03/28 08:34:09;;;;;;;2.80;2.60;;;15.20;99.90;;;;;;4990823;28;20292;-68
2022/03/28 08:36:36;;;;;;;2.60;2.50;;;15.30;99.90;;;;;;4992586;28;20306;-68
2022/03/28 08:39:03;;;;;;;2.53;2.42;;;15.50;99.90;;;;;;4992822;28;20226;-68
2022/03/28 08:41:32;;;;;;;2.40;2.30;;;15.70;99.90;;;;;;4992182;28;20205;-68
2022/03/28 08:44:00;;;;;;;2.83;2.63;;;15.80;99.90;;;;;;4991248;28;20228;-67
2022/03/28 08:46:28;;;;;;;2.80;2.70;;;16.00;99.90;;;;;;4992288;28;20308;-68
2022/03/28 08:48:57;;;;;;;2.87;2.70;;;16.10;99.90;;;;;;4993212;28;20253;-69
2022/03/28 08:51:24;;;;;;;2.50;2.40;;;16.20;99.90;;;;;;4993281;28;20233;-67
2022/03/28 08:53:51;;;;;;;2.70;2.60;;;16.30;99.90;;;;;;4990619;28;20289;-66
2022/03/28 08:56:18;;;;;;;3.00;2.80;;;16.40;99.90;;;;;;4993141;28;20209;-67
2022/03/28 08:58:45;;;;;;;2.97;2.80;;;16.30;99.90;;;;;;4992641;28;20312;-66
2022/03/28 09:01:12;;;;;;;3.57;3.00;;;16.40;99.90;;;;;;4992610;28;20216;-67
2022/03/28 09:03:42;;;;;;;3.08;2.88;;;16.30;99.90;;;;;;4992190;28;20321;-66
2022/03/28 09:06:31;;;;;;;2.85;2.65;;;16.40;99.90;;;;;;4992865;28;20252;-67
2022/03/28 09:09:17;;;;;;;3.25;3.03;;;16.30;99.90;;;;;;4992904;28;20288;-67
2022/03/28 09:11:46;;;;;;;2.88;2.63;;;16.50;99.90;;;;;;4995992;28;20213;-67
2022/03/28 09:14:21;;;;;;;3.33;3.03;;;16.60;99.90;;;;;;4998445;28;20212;-66
2022/03/28 09:17:02;;;;;;;3.38;3.17;;;16.70;99.90;;;;;;4993052;28;20268;-67
2022/03/28 09:19:45;;;;;;;3.40;3.20;;;16.80;99.90;;;;;;4992501;28;20253;-67
2022/03/28 09:22:13;;;;;;;2.90;2.70;;;16.90;99.90;;;;;;4996769;28;20300;-65
2022/03/28 09:24:41;;;;;;;3.00;2.80;;;17.00;99.90;;;;;;5002241;28;20238;-67
2022/03/28 09:27:12;;;;;;;2.78;2.58;;;17.20;99.90;;;;;;5007466;28;20202;-65
2022/03/28 09:29:53;;;;;;;3.10;2.90;;;17.30;99.90;;;;;;4996425;28;20990;-69
2022/03/28 09:32:21;;;;;;;3.40;3.05;;;17.30;99.90;;;;;;4998894;28;20273;-68
2022/03/28 09:35:12;;;;;;;2.90;2.78;;;17.30;99.90;;;;;;4997588;28;20229;-67
2022/03/28 09:37:53;;;;;;;2.42;2.33;;;17.40;99.90;;;;;;4996505;28;20305;-67
2022/03/28 09:40:34;;;;;;;2.97;2.78;;;17.50;99.90;;;;;;4996705;28;20229;-68
2022/03/28 09:43:04;;;;;;;2.97;2.78;;;17.70;99.90;;;;;;4996708;28;20214;-66
2022/03/28 09:45:35;;;;;;;3.00;2.80;;;17.80;99.90;;;;;;4996426;28;20597;-68
2022/03/28 09:48:04;;;;;;;3.27;3.07;;;18.00;99.90;;;;;;4995900;28;20674;-68
2022/03/28 09:50:35;;;;;;;2.83;2.72;;;18.30;99.90;;;;;;4995567;28;20293;-68
2022/03/28 09:53:14;;;;;;;2.90;2.70;;;18.30;99.90;;;;;;4997314;28;20206;-65
2022/03/28 09:55:52;;;;;;;3.47;2.63;;;18.20;99.90;;;;;;5000055;28;20249;-68
2022/03/28 09:58:42;;;;;;;2.90;2.70;;;18.50;99.90;;;;;;4997964;28;20225;-67
2022/03/28 10:01:15;;;;;;;3.30;3.10;;;18.80;99.90;;;;;;4997352;28;20252;-67
2022/03/28 10:03:44;;;;;;;2.92;2.72;;;19.00;99.60;;;;;;4995807;28;20257;-68
2022/03/28 10:06:13;;;;;;;3.45;3.25;;;19.10;99.70;;;;;;4996089;28;20295;-67
2022/03/28 10:08:40;;;;;;;3.40;3.20;;;18.90;98.50;;;;;;4997644;28;20239;-68
2022/03/28 10:11:07;;;;;;;3.10;2.90;;;18.80;99.10;;;;;;4995505;28;20676;-67
2022/03/28 10:13:35;;;;;;;3.03;2.83;;;19.00;99.40;;;;;;4995742;28;20684;-67
2022/03/28 10:16:03;;;;;;;3.25;3.05;;;19.20;99.10;;;;;;4996907;28;20209;-67
2022/03/28 10:18:31;;;;;;;3.30;3.10;;;19.40;98.80;;;;;;4995685;28;20226;-66
2022/03/28 10:21:02;;;;;;;3.40;3.13;;;19.50;98.20;;;;;;4994992;28;20298;-67
2022/03/28 10:23:35;;;;;;;3.00;2.90;;;19.40;98.00;;;;;;4994124;28;20224;-65
2022/03/28 10:26:03;;;;;;;3.60;3.30;;;19.60;98.60;;;;;;4996002;28;20727;-66
2022/03/28 10:28:30;;;;;;;3.60;3.40;;;19.70;97.30;;;;;;4996313;28;20313;-67
2022/03/28 10:31:14;;;;;;;3.25;3.05;;;19.60;97.10;;;;;;4994685;28;20214;-67
2022/03/28 10:33:59;;;;;;;3.30;3.10;;;19.80;97.30;;;;;;4994347;28;20190;-66
2022/03/28 10:36:29;;;;;;;3.45;3.15;;;20.00;97.10;;;;;;4994849;28;20238;-67
2022/03/28 10:39:33;;;;;;;3.63;3.33;;;20.00;96.10;;;;;;4994415;28;20853;-65
2022/03/28 10:42:18;;;;;;;3.50;3.30;;;20.20;96.50;;;;;;4992770;28;20257;-66
2022/03/28 10:44:47;;;;;;;3.55;3.35;;;20.20;95.50;;;;;;4994183;28;20297;-66
2022/03/28 10:47:14;;;;;;;3.90;3.70;;;20.40;95.60;;;;;;4993883;28;20201;-67
2022/03/28 10:49:44;;;;;;;4.22;4.03;;;20.60;94.90;;;;;;4993546;28;20236;-67
2022/03/28 10:52:16;;;;;;;4.85;3.95;;;20.50;94.00;;;;;;4986015;28;20197;-67
2022/03/28 10:54:52;;;;;;;3.97;3.67;;;20.50;93.60;;;;;;4993870;28;20206;-66
2022/03/28 10:57:27;;;;;;;3.83;3.63;;;20.60;94.00;;;;;;4994223;28;20636;-68
2022/03/28 11:00:09;;;;;;;3.70;3.50;;;20.70;93.90;;;;;;4994483;28;20205;-67
2022/03/28 11:02:37;;;;;;;4.22;3.92;;;20.90;93.80;;;;;;4994494;28;20308;-67
2022/03/28 11:05:09;;;;;;;4.10;3.90;;;20.90;93.60;;;;;;4993677;28;20240;-67
2022/03/28 11:07:36;;;;;;;4.57;4.18;;;20.90;92.70;;;;;;4994980;28;20279;-68
2022/03/28 11:10:08;;;;;;;4.05;3.85;;;20.70;93.00;;;;;;5001062;28;20202;-67
2022/03/28 11:12:38;;;;;;;4.13;3.92;;;20.90;93.30;;;;;;4994317;28;20205;-66
2022/03/28 11:15:14;;;;;;;3.97;3.67;;;21.00;92.80;;;;;;5004630;28;20198;-65
2022/03/28 11:17:55;;;;;;;4.15;3.95;;;21.10;92.70;;;;;;5002510;28;20655;-67
2022/03/28 11:20:23;;;;;;;4.15;3.95;;;21.10;92.50;;;;;;4995237;28;20216;-67
2022/03/28 11:22:58;;;;;;;7.18;4.07;;;21.10;92.50;;;;;;4999138;28;20300;-65
2022/03/28 11:25:46;;;;;;;4.03;3.83;;;21.20;92.20;;;;;;5008552;28;20210;-66
2022/03/28 11:28:24;;;;;;;4.60;4.30;;;21.10;92.10;;;;;;5008594;28;20241;-67
2022/03/28 11:31:03;;;;;;;4.25;4.00;;;21.10;92.00;;;;;;5003185;28;20851;-68
2022/03/28 11:33:36;;;;;;;4.22;3.92;;;21.20;93.00;;;;;;4993658;28;20237;-67
2022/03/28 11:36:05;;;;;;;4.28;3.97;;;21.30;92.40;;;;;;4992952;28;20206;-66
2022/03/28 11:38:34;;;;;;;4.10;3.80;;;21.30;91.40;;;;;;4992863;28;20671;-66
2022/03/28 11:41:02;;;;;;;4.00;3.70;;;21.30;91.50;;;;;;4993394;28;20206;-66
2022/03/28 11:43:34;;;;;;;4.28;3.88;;;21.40;91.50;;;;;;4991980;28;20229;-70
2022/03/28 11:46:03;;;;;;;4.10;3.90;;;21.60;92.60;;;;;;4984245;28;20252;-67
2022/03/28 11:48:30;;;;;;;4.18;3.88;;;21.70;92.20;;;;;;4978726;28;20257;-68
2022/03/28 11:50:57;;;;;;;3.92;3.72;;;21.60;91.20;;;;;;4973155;28;20290;-65
2022/03/28 11:53:25;;;;;;;4.53;4.10;;;21.60;91.40;;;;;;4989579;28;20218;-67
2022/03/28 11:55:54;;;;;;;4.45;4.15;;;21.60;90.90;;;;;;4991899;28;20253;-69
2022/03/28 11:58:33;;;;;;;5.03;4.40;;;21.50;90.80;;;;;;4995028;28;20257;-65
2022/03/28 12:01:09;;;;;;;3.95;3.75;;;21.60;91.30;;;;;;4993066;28;20202;-66
2022/03/28 12:03:37;;;;;;;4.45;4.15;;;21.90;90.80;;;;;;4995076;28;20276;-66
2022/03/28 12:06:05;;;;;;;4.30;3.95;;;21.90;90.90;;;;;;4992864;28;20206;-69
2022/03/28 12:08:32;;;;;;;3.78;3.58;;;21.80;90.80;;;;;;4992810;28;20233;-67
2022/03/28 12:10:59;;;;;;;3.80;3.60;;;21.50;90.40;;;;;;4993627;28;20579;-66
2022/03/28 12:13:26;;;;;;;3.70;3.50;;;21.60;90.60;;;;;;4992891;28;20379;-67
2022/03/28 12:15:56;;;;;;;4.10;3.67;;;21.70;90.40;;;;;;4992284;28;20191;-66
2022/03/28 12:18:29;;;;;;;4.50;4.10;;;21.90;90.20;;;;;;4992772;28;20230;-65
2022/03/28 12:20:56;;;;;;;3.70;3.50;;;22.10;90.30;;;;;;4992689;28;20285;-66
2022/03/28 12:23:25;;;;;;;3.90;3.60;;;22.20;90.20;;;;;;4992726;28;20229;-66
2022/03/28 12:25:54;;;;;;;3.78;3.47;;;22.40;89.80;;;;;;4997189;28;20206;-69
2022/03/28 12:28:27;;;;;;;4.10;3.70;;;22.30;89.80;;;;;;5004492;28;20226;-67
2022/03/28 12:30:57;;;;;;;3.70;3.50;;;22.00;88.20;;;;;;4992788;28;20721;-67
2022/03/28 12:33:27;;;;;;;3.70;3.50;;;22.00;88.80;;;;;;4991698;28;20202;-67
2022/03/28 12:35:57;;;;;;;3.50;3.30;;;22.20;88.80;;;;;;4991845;28;20570;-66
2022/03/28 12:38:26;;;;;;;3.15;2.95;;;22.40;89.10;;;;;;4994965;28;20233;-66
2022/03/28 12:40:55;;;;;;;3.33;3.00;;;22.60;89.20;;;;;;5001921;28;20206;-65
2022/03/28 12:43:23;;;;;;;3.08;2.60;;;22.70;87.00;;;;;;4993528;28;20612;-66
2022/03/28 12:45:52;;;;;;;3.35;3.05;;;22.70;87.80;;;;;;4994690;28;20242;-67
2022/03/28 12:48:21;;;;;;;3.50;3.30;;;22.80;86.50;;;;;;4994349;28;20280;-66
2022/03/28 12:50:56;;;;;;;3.75;3.47;;;22.50;85.10;;;;;;4992093;28;20210;-65
2022/03/28 12:53:28;;;;;;;3.28;3.08;;;22.50;86.10;;;;;;4991127;28;20381;-65
2022/03/28 12:55:55;;;;;;;2.85;2.75;;;22.50;86.10;;;;;;4996846;28;20288;-67
2022/03/28 12:58:34;;;;;;;3.70;3.40;;;22.70;86.50;;;;;;4991387;28;20226;-66
2022/03/28 13:01:06;;;;;;;3.95;3.55;;;22.70;84.80;;;;;;4990761;28;20337;-66
2022/03/28 13:03:34;;;;;;;3.25;3.08;;;22.60;85.10;;;;;;4992295;28;20229;-65